Time;durP1;ratioP1;P1;durP2;ratioP2;P2;SDS_P1;SDS_P2;PMS_P1;PMS_P2;Temp;Humidity;BMP_temperature;BMP_pressure;BME280_temperature;BME280_humidity;BME280_pressure;Samples;Min_cycle;Max_cycle;Signal;HPM_P1;HPM_P2
2022/08/30 00:01:42;;;;;;;14.93;7.55;;;;;;;;;;5076758;28;20040;-82
2022/08/30 00:04:27;;;;;;;10.57;7.18;;;;;;;;;;5077629;28;20037;-82
2022/08/30 00:07:13;;;;;;;9.07;7.07;;;;;;;;;;5077289;28;20056;-81
2022/08/30 00:09:58;;;;;;;10.68;7.38;;;;;;;;;;5076556;28;20079;-84
2022/08/30 00:12:44;;;;;;;8.98;7.25;;;;;;;;;;5076457;28;20048;-81
2022/08/30 00:15:30;;;;;;;12.82;6.93;;;;;;;;;;5076040;28;20037;-82
2022/08/30 00:18:17;;;;;;;10.70;6.63;;;;;;;;;;5076725;28;20036;-81
2022/08/30 00:21:03;;;;;;;8.80;7.13;;;;;;;;;;5076512;28;20033;-82
2022/08/30 00:23:47;;;;;;;10.55;6.93;;;;;;;;;;5076475;28;20363;-81
2022/08/30 00:26:33;;;;;;;8.13;6.22;;;;;;;;;;5076434;28;20044;-81
2022/08/30 00:29:19;;;;;;;7.38;5.63;;;;;;;;;;5075655;28;20041;-82
2022/08/30 00:32:04;;;;;;;9.55;5.30;;;;;;;;;;5076332;28;20040;-82
2022/08/30 00:34:51;;;;;;;8.98;5.95;;;;;;;;;;5076243;28;20032;-83
2022/08/30 00:37:37;;;;;;;10.38;5.68;;;;;;;;;;5082406;28;20048;-82
2022/08/30 00:40:23;;;;;;;6.63;5.75;;;;;;;;;;5082148;28;20044;-81
2022/08/30 00:43:16;;;;;;;6.30;5.70;;;;;;;;;;5075078;28;20041;-81
2022/08/30 00:46:03;;;;;;;11.20;5.78;;;;;;;;;;5075185;28;20040;-84
2022/08/30 00:48:49;;;;;;;10.52;5.95;;;;;;;;;;5078670;28;20044;-83
2022/08/30 00:51:34;;;;;;;10.85;6.65;;;;;;;;;;5085972;28;20045;-79
2022/08/30 00:54:21;;;;;;;8.45;6.40;;;;;;;;;;5082690;28;20406;-80
2022/08/30 00:57:06;;;;;;;10.43;6.20;;;;;;;;;;5078158;28;20032;-81
2022/08/30 00:59:51;;;;;;;9.38;6.13;;;;;;;;;;5079736;28;20044;-82
2022/08/30 01:02:37;;;;;;;9.35;6.60;;;;;;;;;;5079709;28;20395;-82
2022/08/30 01:05:22;;;;;;;10.60;6.63;;;;;;;;;;5086509;28;20040;-82
2022/08/30 01:08:09;;;;;;;17.35;6.68;;;;;;;;;;5086781;28;20036;-81
2022/08/30 01:10:56;;;;;;;11.38;7.28;;;;;;;;;;5079057;28;20048;-83
2022/08/30 01:13:44;;;;;;;8.60;7.38;;;;;;;;;;5079177;28;20033;-82
2022/08/30 01:16:32;;;;;;;10.45;7.03;;;;;;;;;;5080230;28;20049;-81
2022/08/30 01:19:45;;;;;;;12.77;7.45;;;;;;;;;;5085687;28;20044;-83
2022/08/30 01:22:48;;;;;;;9.75;7.18;;;;;;;;;;5082188;28;20048;-82
2022/08/30 01:25:36;;;;;;;11.23;6.60;;;;;;;;;;5075485;28;20041;-82
2022/08/30 01:28:24;;;;;;;10.65;6.68;;;;;;;;;;5083245;28;20044;-81
2022/08/30 01:31:10;;;;;;;7.68;6.25;;;;;;;;;;5076006;28;20032;-82
2022/08/30 01:33:55;;;;;;;10.55;6.32;;;;;;;;;;5075555;28;20041;-81
2022/08/30 01:36:43;;;;;;;9.60;6.38;;;;;;;;;;5076220;28;20048;-81
2022/08/30 01:39:28;;;;;;;8.75;5.80;;;;;;;;;;5076030;28;20048;-81
2022/08/30 01:42:16;;;;;;;5.80;4.85;;;;;;;;;;5067256;28;20040;-85
2022/08/30 01:45:03;;;;;;;8.95;5.85;;;;;;;;;;5075612;28;20041;-82
2022/08/30 01:47:49;;;;;;;10.98;5.95;;;;;;;;;;5075636;28;20383;-83
2022/08/30 01:50:35;;;;;;;9.88;5.80;;;;;;;;;;5075828;28;20036;-82
2022/08/30 01:53:20;;;;;;;10.50;6.88;;;;;;;;;;5075799;28;20044;-83
2022/08/30 01:56:07;;;;;;;10.13;7.50;;;;;;;;;;5067568;28;20056;-81
2022/08/30 01:58:54;;;;;;;10.73;7.40;;;;;;;;;;5082571;28;20048;-81
2022/08/30 02:01:40;;;;;;;11.00;7.65;;;;;;;;;;5075411;28;20037;-82
2022/08/30 02:04:25;;;;;;;12.75;6.40;;;;;;;;;;5075016;28;20036;-82
2022/08/30 02:07:11;;;;;;;10.40;7.43;;;;;;;;;;5075334;28;20040;-81
2022/08/30 02:09:57;;;;;;;10.43;7.30;;;;;;;;;;5075388;28;20052;-82
2022/08/30 02:12:42;;;;;;;9.32;6.45;;;;;;;;;;5081716;28;20044;-82
2022/08/30 02:15:28;;;;;;;8.15;6.30;;;;;;;;;;5059950;28;20041;-82
2022/08/30 02:18:12;;;;;;;8.82;6.78;;;;;;;;;;5074960;28;20467;-83
2022/08/30 02:20:58;;;;;;;10.95;7.80;;;;;;;;;;5080676;28;20450;-81
2022/08/30 02:23:44;;;;;;;12.10;7.90;;;;;;;;;;5074661;28;20040;-82
2022/08/30 02:26:31;;;;;;;10.32;7.10;;;;;;;;;;5075722;28;20040;-83
2022/08/30 02:29:16;;;;;;;11.63;7.13;;;;;;;;;;5082032;28;20040;-80
2022/08/30 02:32:02;;;;;;;9.68;6.20;;;;;;;;;;5081997;28;20455;-83
2022/08/30 02:34:47;;;;;;;12.13;6.72;;;;;;;;;;5075542;28;20040;-82
2022/08/30 02:37:32;;;;;;;12.57;6.15;;;;;;;;;;5075402;28;20044;-80
2022/08/30 02:40:20;;;;;;;9.65;6.25;;;;;;;;;;5075701;28;20036;-80
2022/08/30 02:43:06;;;;;;;14.70;6.05;;;;;;;;;;5074898;28;20041;-81
2022/08/30 02:45:52;;;;;;;6.82;5.57;;;;;;;;;;5075100;28;20044;-84
2022/08/30 02:48:37;;;;;;;9.00;6.25;;;;;;;;;;5074506;28;20045;-80
2022/08/30 02:51:22;;;;;;;8.57;6.63;;;;;;;;;;5075063;28;20036;-82
2022/08/30 02:54:08;;;;;;;11.60;6.72;;;;;;;;;;5067333;28;20041;-82
2022/08/30 02:56:52;;;;;;;13.52;6.75;;;;;;;;;;5081473;28;20036;-80
2022/08/30 02:59:42;;;;;;;9.70;6.32;;;;;;;;;;5074925;28;20033;-84
2022/08/30 03:02:29;;;;;;;7.60;6.28;;;;;;;;;;5074884;28;20036;-83
2022/08/30 03:05:16;;;;;;;10.80;6.78;;;;;;;;;;5074901;28;20371;-82
2022/08/30 03:08:01;;;;;;;13.57;7.07;;;;;;;;;;5074992;28;20041;-83
2022/08/30 03:10:46;;;;;;;9.23;6.70;;;;;;;;;;5074487;28;20036;-82
2022/08/30 03:13:32;;;;;;;10.38;6.50;;;;;;;;;;5075126;28;20033;-82
2022/08/30 03:16:18;;;;;;;10.68;6.40;;;;;;;;;;5076931;28;20380;-85
2022/08/30 03:19:03;;;;;;;9.10;6.28;;;;;;;;;;5090426;28;20487;-84
2022/08/30 03:21:49;;;;;;;10.57;6.65;;;;;;;;;;5078490;28;20036;-82
2022/08/30 03:24:35;;;;;;;8.10;6.63;;;;;;;;;;5080533;28;20041;-80
2022/08/30 03:27:20;;;;;;;11.85;6.38;;;;;;;;;;5084668;28;20051;-84
2022/08/30 03:30:09;;;;;;;10.05;6.72;;;;;;;;;;5099049;28;20048;-83
2022/08/30 03:32:55;;;;;;;14.48;6.72;;;;;;;;;;5105473;28;20037;-80
2022/08/30 03:35:41;;;;;;;11.32;6.53;;;;;;;;;;5103123;28;20040;-79
2022/08/30 03:38:26;;;;;;;9.30;6.80;;;;;;;;;;5105079;28;20048;-81
2022/08/30 03:41:12;;;;;;;7.88;6.63;;;;;;;;;;5098943;28;20036;-81
2022/08/30 03:43:59;;;;;;;7.63;6.55;;;;;;;;;;5104543;28;20040;-81
2022/08/30 03:46:44;;;;;;;11.15;6.65;;;;;;;;;;5097347;28;20036;-79
2022/08/30 03:49:30;;;;;;;9.13;6.53;;;;;;;;;;5097883;28;20044;-81
2022/08/30 03:52:15;;;;;;;12.75;6.68;;;;;;;;;;5103986;28;20040;-84
2022/08/30 03:55:01;;;;;;;9.95;6.20;;;;;;;;;;5097491;28;20040;-82
2022/08/30 03:57:46;;;;;;;11.32;6.75;;;;;;;;;;5097698;28;20044;-82
2022/08/30 04:00:32;;;;;;;11.18;6.82;;;;;;;;;;5104905;28;20382;-83
2022/08/30 04:03:19;;;;;;;9.73;6.28;;;;;;;;;;5104517;28;20043;-81
2022/08/30 04:06:04;;;;;;;10.98;6.72;;;;;;;;;;5097410;28;20033;-81
2022/08/30 04:08:50;;;;;;;11.63;6.80;;;;;;;;;;5104669;28;20048;-85
2022/08/30 04:11:35;;;;;;;11.25;6.78;;;;;;;;;;5097690;28;20382;-83
2022/08/30 04:14:22;;;;;;;10.88;7.07;;;;;;;;;;5084199;28;20032;-81
2022/08/30 04:17:08;;;;;;;7.97;6.45;;;;;;;;;;5091617;28;20040;-83
2022/08/30 04:19:53;;;;;;;11.43;6.50;;;;;;;;;;5097304;28;20036;-83
2022/08/30 04:22:39;;;;;;;14.38;6.68;;;;;;;;;;5096850;28;20040;-83
2022/08/30 04:25:24;;;;;;;10.68;6.32;;;;;;;;;;5084130;28;20036;-82
2022/08/30 04:28:10;;;;;;;13.20;6.55;;;;;;;;;;5076062;28;20044;-84
2022/08/30 04:30:56;;;;;;;13.20;6.88;;;;;;;;;;5076831;28;20040;-83
2022/08/30 04:33:42;;;;;;;12.55;7.00;;;;;;;;;;5083581;28;20040;-82
2022/08/30 04:36:28;;;;;;;9.38;6.93;;;;;;;;;;5076079;28;20048;-84
2022/08/30 04:39:13;;;;;;;10.70;6.97;;;;;;;;;;5082210;28;20044;-82
2022/08/30 04:42:02;;;;;;;14.48;6.95;;;;;;;;;;5095263;28;20044;-84
2022/08/30 04:44:48;;;;;;;12.57;7.43;;;;;;;;;;5082573;28;20044;-82
2022/08/30 04:47:33;;;;;;;13.18;6.57;;;;;;;;;;5095527;28;20035;-83
2022/08/30 04:50:19;;;;;;;8.10;6.78;;;;;;;;;;5089333;28;20390;-82
2022/08/30 04:53:05;;;;;;;11.70;6.72;;;;;;;;;;5085360;28;20044;-81
2022/08/30 04:55:51;;;;;;;10.25;6.70;;;;;;;;;;5075448;28;20041;-82
2022/08/30 04:58:36;;;;;;;10.60;6.60;;;;;;;;;;5075238;28;20036;-82
2022/08/30 05:01:26;;;;;;;10.07;6.38;;;;;;;;;;5084136;28;20048;-82
2022/08/30 05:04:13;;;;;;;9.02;6.32;;;;;;;;;;5086279;28;20040;-82
2022/08/30 05:06:58;;;;;;;10.07;6.22;;;;;;;;;;5102041;28;20463;-82
2022/08/30 05:09:43;;;;;;;13.55;6.55;;;;;;;;;;5101539;28;20043;-81
2022/08/30 05:12:29;;;;;;;9.73;6.50;;;;;;;;;;5093256;28;20040;-81
2022/08/30 05:15:15;;;;;;;10.43;6.50;;;;;;;;;;5094298;28;20047;-81
2022/08/30 05:18:01;;;;;;;15.50;6.50;;;;;;;;;;5085700;28;20036;-81
2022/08/30 05:20:46;;;;;;;15.30;7.18;;;;;;;;;;5080880;28;20036;-82
2022/08/30 05:23:32;;;;;;;16.98;7.63;;;;;;;;;;5084614;28;20455;-81
2022/08/30 05:26:24;;;;;;;15.45;9.30;;;;;;;;;;5086950;28;20052;-82
2022/08/30 05:29:10;;;;;;;18.75;10.43;;;;;;;;;;5074266;28;20228;-81
2022/08/30 05:31:56;;;;;;;31.73;12.40;;;;;;;;;;5073432;28;20379;-84
2022/08/30 05:34:41;;;;;;;17.95;9.70;;;;;;;;;;5073732;28;20044;-82
2022/08/30 05:37:26;;;;;;;14.05;7.13;;;;;;;;;;5089266;28;20037;-83
2022/08/30 05:40:16;;;;;;;9.63;5.93;;;;;;;;;;5089674;28;20028;-83
2022/08/30 05:43:00;;;;;;;10.48;6.18;;;;;;;;;;5094576;28;20036;-84
2022/08/30 05:45:45;;;;;;;14.43;6.90;;;;;;;;;;5090081;28;20045;-83
2022/08/30 05:48:32;;;;;;;8.75;6.20;;;;;;;;;;5079791;28;20044;-83
2022/08/30 05:51:20;;;;;;;8.60;6.20;;;;;;;;;;5085248;28;20135;-84
2022/08/30 05:54:06;;;;;;;11.95;7.07;;;;;;;;;;5094464;28;20043;-83
2022/08/30 05:56:51;;;;;;;13.05;6.30;;;;;;;;;;5087373;28;20040;-83
2022/08/30 05:59:37;;;;;;;12.82;6.22;;;;;;;;;;5098556;28;20043;-83
2022/08/30 06:02:23;;;;;;;11.68;6.40;;;;;;;;;;5095019;28;20390;-83
2022/08/30 06:05:10;;;;;;;10.43;7.55;;;;;;;;;;5101684;28;20048;-83
2022/08/30 06:07:56;;;;;;;14.75;9.55;;;;;;;;;;5102127;28;20458;-82
2022/08/30 06:10:42;;;;;;;19.30;12.95;;;;;;;;;;5095864;28;20052;-83
2022/08/30 06:13:27;;;;;;;17.20;10.85;;;;;;;;;;5085765;28;20084;-81
2022/08/30 06:16:16;;;;;;;11.20;7.47;;;;;;;;;;5083332;28;20044;-83
2022/08/30 06:19:02;;;;;;;14.80;7.63;;;;;;;;;;5084245;28;20040;-84
2022/08/30 06:21:50;;;;;;;11.95;7.03;;;;;;;;;;5080432;28;20414;-83
2022/08/30 06:24:36;;;;;;;9.90;6.43;;;;;;;;;;5073845;28;20044;-81
2022/08/30 06:27:21;;;;;;;12.32;7.80;;;;;;;;;;5093890;28;20032;-83
2022/08/30 06:30:09;;;;;;;10.43;7.38;;;;;;;;;;5095997;28;20379;-84
2022/08/30 06:32:54;;;;;;;13.25;7.45;;;;;;;;;;5093360;28;20040;-83
2022/08/30 06:35:39;;;;;;;11.45;6.03;;;;;;;;;;5092725;28;20048;-83
2022/08/30 06:38:24;;;;;;;11.20;6.45;;;;;;;;;;5099381;28;20036;-83
2022/08/30 06:41:14;;;;;;;12.90;5.78;;;;;;;;;;5098797;28;20040;-83
2022/08/30 06:44:02;;;;;;;9.15;5.72;;;;;;;;;;5091806;28;20044;-84
2022/08/30 06:46:47;;;;;;;9.82;5.72;;;;;;;;;;5099647;28;20036;-83
2022/08/30 06:49:33;;;;;;;9.85;6.55;;;;;;;;;;5100464;28;20044;-82
2022/08/30 06:52:18;;;;;;;10.30;6.18;;;;;;;;;;5097948;28;20032;-81
2022/08/30 06:55:04;;;;;;;9.70;5.20;;;;;;;;;;5104188;28;20044;-83
2022/08/30 06:57:49;;;;;;;11.20;6.40;;;;;;;;;;5104387;28;20459;-85
2022/08/30 07:00:35;;;;;;;9.70;5.80;;;;;;;;;;5104607;28;20379;-84
2022/08/30 07:03:21;;;;;;;12.65;6.10;;;;;;;;;;5097782;28;20051;-84
2022/08/30 07:06:07;;;;;;;8.73;5.93;;;;;;;;;;5104450;28;20040;-83
2022/08/30 07:08:53;;;;;;;9.82;5.97;;;;;;;;;;5088890;28;20479;-84
2022/08/30 07:11:39;;;;;;;7.95;5.70;;;;;;;;;;5097494;28;20079;-82
2022/08/30 07:14:24;;;;;;;11.35;5.03;;;;;;;;;;5103819;28;20040;-83
2022/08/30 07:20:12;;;;;;;10.45;6.22;;;;;;;;;;5104108;28;20463;-83
2022/08/30 07:22:58;;;;;;;9.82;5.18;;;;;;;;;;5096445;28;20443;-83
2022/08/30 07:25:43;;;;;;;8.32;5.40;;;;;;;;;;5097298;28;20032;-82
2022/08/30 07:28:29;;;;;;;11.70;5.70;;;;;;;;;;5097012;28;20032;-82
2022/08/30 07:31:15;;;;;;;8.43;5.30;;;;;;;;;;5103513;28;20052;-83
2022/08/30 07:34:01;;;;;;;9.80;6.03;;;;;;;;;;5103734;28;20044;-83
2022/08/30 07:36:46;;;;;;;8.18;5.45;;;;;;;;;;5096527;28;20044;-83
2022/08/30 07:39:32;;;;;;;9.70;5.50;;;;;;;;;;5103638;28;20463;-83
2022/08/30 07:42:18;;;;;;;8.60;6.28;;;;;;;;;;5096507;28;20032;-83
2022/08/30 07:45:03;;;;;;;8.35;5.63;;;;;;;;;;5096630;28;20043;-83
2022/08/30 07:47:49;;;;;;;10.32;5.40;;;;;;;;;;5096933;28;20044;-85
2022/08/30 07:50:34;;;;;;;8.60;5.30;;;;;;;;;;5096376;28;20040;-81
2022/08/30 07:53:20;;;;;;;9.25;6.03;;;;;;;;;;5100749;28;20052;-83
2022/08/30 07:56:06;;;;;;;8.13;6.05;;;;;;;;;;5078715;28;20044;-83
2022/08/30 07:58:52;;;;;;;7.13;5.90;;;;;;;;;;5076166;28;20044;-82
2022/08/30 08:01:37;;;;;;;8.82;5.70;;;;;;;;;;5075586;28;20041;-83
2022/08/30 08:04:23;;;;;;;7.07;5.63;;;;;;;;;;5087097;28;20039;-83
2022/08/30 08:07:09;;;;;;;11.20;5.60;;;;;;;;;;5082817;28;20045;-83
2022/08/30 08:09:55;;;;;;;6.72;5.10;;;;;;;;;;5076032;28;20402;-83
2022/08/30 08:12:40;;;;;;;7.40;5.25;;;;;;;;;;5075408;28;20044;-83
2022/08/30 08:15:27;;;;;;;8.48;5.20;;;;;;;;;;5083419;28;20060;-83
2022/08/30 08:18:12;;;;;;;8.85;5.25;;;;;;;;;;5082619;28;20036;-81
2022/08/30 08:20:59;;;;;;;10.73;5.43;;;;;;;;;;5103086;28;20044;-81
2022/08/30 08:23:44;;;;;;;7.57;5.50;;;;;;;;;;5084200;28;20037;-83
2022/08/30 08:26:34;;;;;;;8.80;5.15;;;;;;;;;;5091020;28;20041;-82
2022/08/30 08:29:20;;;;;;;6.72;4.90;;;;;;;;;;5086057;28;20040;-82
2022/08/30 08:32:06;;;;;;;9.13;5.05;;;;;;;;;;5087627;28;20055;-82
2022/08/30 08:34:52;;;;;;;8.27;4.93;;;;;;;;;;5091798;28;20035;-84
2022/08/30 08:37:38;;;;;;;11.07;5.65;;;;;;;;;;5095998;28;20044;-82
2022/08/30 08:40:25;;;;;;;6.50;4.97;;;;;;;;;;5099089;28;20044;-82
2022/08/30 08:43:13;;;;;;;6.78;5.30;;;;;;;;;;5085432;28;20051;-82
2022/08/30 08:46:17;;;;;;;6.72;4.97;;;;;;;;;;5082863;28;20379;-82
2022/08/30 08:49:05;;;;;;;7.30;4.63;;;;;;;;;;5090823;28;20049;-83
2022/08/30 08:55:00;;;;;;;7.35;4.47;;;;;;;;;;5093402;28;20471;-82
2022/08/30 08:57:46;;;;;;;5.90;3.53;;;;;;;;;;5076489;28;20048;-83
2022/08/30 09:00:32;;;;;;;6.97;4.35;;;;;;;;;;5083413;28;20040;-80
2022/08/30 09:03:20;;;;;;;4.97;4.18;;;;;;;;;;5081261;28;20391;-83
2022/08/30 09:06:40;;;;;;;6.28;3.08;;;;;;;;;;5081027;28;20387;-82
2022/08/30 09:09:30;;;;;;;5.35;4.50;;;;;;;;;;5099751;28;20043;-81
2022/08/30 09:12:15;;;;;;;7.65;3.90;;;;;;;;;;5092320;28;20043;-81
2022/08/30 09:15:16;;;;;;;5.60;3.83;;;;;;;;;;5087973;28;20394;-80
2022/08/30 09:18:06;;;;;;;6.32;4.05;;;;;;;;;;5083433;28;20036;-81
2022/08/30 09:20:53;;;;;;;6.82;4.10;;;;;;;;;;5101405;28;20040;-81
2022/08/30 09:23:48;;;;;;;8.68;4.47;;;;;;;;;;5093796;28;20044;-82
2022/08/30 09:26:34;;;;;;;;;;;;;;;;;;5083395;28;20040;-80
2022/08/30 09:29:19;;;;;;;5.68;3.83;;;;;;;;;;5084014;28;19913;-79
2022/08/30 09:32:05;;;;;;;4.28;3.10;;;;;;;;;;5092591;28;20040;-80
2022/08/30 09:34:51;;;;;;;5.85;3.92;;;;;;;;;;5089007;28;20040;-81
2022/08/30 09:37:44;;;;;;;8.23;5.35;;;;;;;;;;5097470;28;20463;-81
2022/08/30 09:40:33;;;;;;;6.63;4.38;;;;;;;;;;5090461;28;20466;-80
2022/08/30 09:43:22;;;;;;;5.78;3.92;;;;;;;;;;5100594;28;20378;-82
2022/08/30 09:46:09;;;;;;;5.32;4.15;;;;;;;;;;5083730;28;20036;-81
2022/08/30 09:48:55;;;;;;;5.95;4.18;;;;;;;;;;5073809;28;20048;-80
2022/08/30 09:51:54;;;;;;;5.13;3.53;;;;;;;;;;5083423;28;20048;-81
2022/08/30 09:54:57;;;;;;;7.47;4.05;;;;;;;;;;5095486;28;20036;-80
2022/08/30 09:57:58;;;;;;;5.40;3.70;;;;;;;;;;5092069;28;20040;-80
2022/08/30 10:01:08;;;;;;;4.15;3.70;;;;;;;;;;5083976;28;20044;-82
2022/08/30 10:04:04;;;;;;;6.22;3.80;;;;;;;;;;5097198;28;20040;-81
2022/08/30 10:07:02;;;;;;;6.13;4.10;;;;;;;;;;5073649;28;20036;-82
2022/08/30 10:09:48;;;;;;;5.82;4.40;;;;;;;;;;5073704;28;20045;-82
2022/08/30 10:12:50;;;;;;;6.22;4.20;;;;;;;;;;5073711;28;20467;-82
2022/08/30 10:15:52;;;;;;;7.63;4.30;;;;;;;;;;5073595;28;20040;-81
2022/08/30 10:19:17;;;;;;;7.82;4.70;;;;;;;;;;5080313;28;20479;-80
2022/08/30 10:22:25;;;;;;;5.63;3.80;;;;;;;;;;5089442;28;20040;-82
2022/08/30 10:25:27;;;;;;;5.63;3.97;;;;;;;;;;5085201;28;20024;-81
2022/08/30 10:28:26;;;;;;;8.23;4.28;;;;;;;;;;5091890;28;20048;-83
2022/08/30 10:31:51;;;;;;;7.70;3.85;;;;;;;;;;5092825;28;20044;-83
2022/08/30 10:34:48;;;;;;;5.50;4.07;;;;;;;;;;5086980;28;20040;-83
2022/08/30 10:38:23;;;;;;;11.70;4.20;;;;;;;;;;5076244;28;20044;-83
2022/08/30 10:41:35;;;;;;;6.53;4.43;;;;;;;;;;5059531;28;20054;-82
2022/08/30 10:44:30;;;;;;;7.55;3.92;;;;;;;;;;5083949;28;20040;-83
2022/08/30 10:47:28;;;;;;;8.27;5.75;;;;;;;;;;5078286;28;20044;-82
2022/08/30 10:50:37;;;;;;;4.70;4.07;;;;;;;;;;5090697;28;20048;-81
2022/08/30 10:53:35;;;;;;;8.48;4.43;;;;;;;;;;5101184;28;20040;-82
2022/08/30 10:56:25;;;;;;;6.57;4.03;;;;;;;;;;5073442;28;20049;-80
2022/08/30 10:59:10;;;;;;;6.15;4.53;;;;;;;;;;5089441;28;20040;-81
2022/08/30 11:02:38;;;;;;;5.63;4.18;;;;;;;;;;5100553;28;20040;-81
2022/08/30 11:05:52;;;;;;;6.45;4.03;;;;;;;;;;5074646;28;20467;-81
2022/08/30 11:09:05;;;;;;;4.35;3.88;;;;;;;;;;5084792;28;20044;-81
2022/08/30 11:12:28;;;;;;;6.05;4.10;;;;;;;;;;5092094;28;20043;-82
2022/08/30 11:15:21;;;;;;;6.63;4.30;;;;;;;;;;5078650;28;20040;-82
2022/08/30 11:18:12;;;;;;;4.20;3.67;;;;;;;;;;5080001;28;20044;-81
2022/08/30 11:21:18;;;;;;;6.65;4.43;;;;;;;;;;5079659;28;20040;-82
2022/08/30 11:24:27;;;;;;;6.00;4.57;;;;;;;;;;5069875;28;20049;-82
2022/08/30 11:27:41;;;;;;;7.45;4.43;;;;;;;;;;5082790;28;20045;-81
2022/08/30 11:30:27;;;;;;;6.13;4.15;;;;;;;;;;5089583;28;20036;-79
2022/08/30 11:33:22;;;;;;;7.07;4.50;;;;;;;;;;5100156;28;20048;-79
2022/08/30 11:36:09;;;;;;;5.63;4.18;;;;;;;;;;5100838;28;20044;-82
2022/08/30 11:39:32;;;;;;;5.45;3.88;;;;;;;;;;5103609;28;20052;-81
2022/08/30 11:42:33;;;;;;;7.32;4.75;;;;;;;;;;5001913;28;20047;-81
2022/08/30 11:45:22;;;;;;;7.55;4.38;;;;;;;;;;5094917;28;20040;-82
2022/08/30 11:48:39;;;;;;;7.22;5.00;;;;;;;;;;5095401;28;20048;-82
2022/08/30 11:51:27;;;;;;;6.93;4.85;;;;;;;;;;5103191;28;20366;-82
2022/08/30 11:54:17;;;;;;;6.55;4.47;;;;;;;;;;5096258;28;20036;-82
2022/08/30 11:57:35;;;;;;;8.23;4.85;;;;;;;;;;5096388;28;20044;-83
2022/08/30 12:00:38;;;;;;;4.93;4.05;;;;;;;;;;5096543;28;20036;-82
2022/08/30 12:03:32;;;;;;;7.85;4.70;;;;;;;;;;5086529;28;20035;-82
2022/08/30 12:06:40;;;;;;;6.82;4.50;;;;;;;;;;5087264;28;20032;-82
2022/08/30 12:09:24;;;;;;;5.82;3.88;;;;;;;;;;5075573;28;20036;-82
2022/08/30 12:12:31;;;;;;;4.55;3.75;;;;;;;;;;5075915;28;20048;-83
2022/08/30 12:15:47;;;;;;;4.72;4.10;;;;;;;;;;5087351;28;20032;-81
2022/08/30 12:19:24;;;;;;;6.15;4.03;;;;;;;;;;5086819;28;20048;-82
2022/08/30 12:22:15;;;;;;;16.25;4.45;;;;;;;;;;5057891;28;20040;-83
2022/08/30 12:25:01;;;;;;;6.22;4.20;;;;;;;;;;5075855;28;20053;-82
2022/08/30 12:27:47;;;;;;;6.35;4.30;;;;;;;;;;5075931;28;20048;-82
2022/08/30 12:30:37;;;;;;;8.45;5.15;;;;;;;;;;5060837;28;20399;-82
2022/08/30 12:33:31;;;;;;;6.35;4.43;;;;;;;;;;5075684;28;20041;-82
2022/08/30 12:36:39;;;;;;;7.60;4.28;;;;;;;;;;5084601;28;20040;-81
2022/08/30 12:39:32;;;;;;;5.43;3.95;;;;;;;;;;5092527;28;20043;-82
2022/08/30 12:42:21;;;;;;;3.92;3.33;;;;;;;;;;5091561;28;20032;-82
2022/08/30 12:45:12;;;;;;;5.05;3.50;;;;;;;;;;5086125;28;20036;-82
2022/08/30 12:48:02;;;;;;;4.35;3.95;;;;;;;;;;5092393;28;20048;-82
2022/08/30 12:50:52;;;;;;;4.68;3.80;;;;;;;;;;5095933;28;20335;-82
2022/08/30 12:53:45;;;;;;;4.47;3.20;;;;;;;;;;5085469;28;20040;-81
2022/08/30 12:56:52;;;;;;;4.80;4.10;;;;;;;;;;5102466;28;20040;-82
2022/08/30 12:59:50;;;;;;;5.80;3.67;;;;;;;;;;5088350;28;20033;-81
2022/08/30 13:02:45;;;;;;;5.90;3.70;;;;;;;;;;5081439;28;20037;-82
2022/08/30 13:05:42;;;;;;;5.32;4.07;;;;;;;;;;5085816;28;20036;-83
2022/08/30 13:08:35;;;;;;;5.80;3.80;;;;;;;;;;5094764;28;20036;-81
2022/08/30 13:11:20;;;;;;;4.82;3.85;;;;;;;;;;5074825;28;20045;-81
2022/08/30 13:14:33;;;;;;;3.60;3.30;;;;;;;;;;5091589;28;20036;-82
2022/08/30 13:17:18;;;;;;;4.15;3.75;;;;;;;;;;5079456;28;20044;-81
2022/08/30 13:20:15;;;;;;;5.68;3.70;;;;;;;;;;5100080;28;20040;-82
2022/08/30 13:23:03;;;;;;;7.57;4.25;;;;;;;;;;5089988;28;20048;-83
2022/08/30 13:25:48;;;;;;;5.28;3.80;;;;;;;;;;5076757;28;20406;-83
2022/08/30 13:28:50;;;;;;;6.47;3.78;;;;;;;;;;5089420;28;20040;-82
2022/08/30 13:31:35;;;;;;;7.15;3.97;;;;;;;;;;5082258;28;20044;-81
2022/08/30 13:34:21;;;;;;;5.03;3.78;;;;;;;;;;5085480;28;20106;-81
2022/08/30 13:37:10;;;;;;;5.45;3.95;;;;;;;;;;5101314;28;20044;-82
2022/08/30 13:39:55;;;;;;;5.18;3.92;;;;;;;;;;5079231;28;20048;-83
2022/08/30 13:42:41;;;;;;;5.53;3.83;;;;;;;;;;5084567;28;20040;-80
2022/08/30 13:45:27;;;;;;;6.00;3.63;;;;;;;;;;5083122;28;20475;-83
2022/08/30 13:48:14;;;;;;;6.18;3.97;;;;;;;;;;5101178;28;20040;-81
2022/08/30 13:51:00;;;;;;;5.55;3.85;;;;;;;;;;5094429;28;20036;-81
2022/08/30 13:53:45;;;;;;;5.00;4.00;;;;;;;;;;5082830;28;20040;-82
2022/08/30 13:56:31;;;;;;;11.68;4.20;;;;;;;;;;5087370;28;20399;-83
2022/08/30 13:59:16;;;;;;;4.18;3.45;;;;;;;;;;5073676;28;20036;-83
2022/08/30 14:02:02;;;;;;;7.85;4.43;;;;;;;;;;5094039;28;20040;-82
2022/08/30 14:04:47;;;;;;;5.88;3.97;;;;;;;;;;5085571;28;20040;-82
2022/08/30 14:07:33;;;;;;;5.82;3.88;;;;;;;;;;5096867;28;20044;-82
2022/08/30 14:10:20;;;;;;;6.25;3.88;;;;;;;;;;5099706;28;20036;-77
2022/08/30 14:13:08;;;;;;;5.10;3.65;;;;;;;;;;5102306;28;20048;-80
2022/08/30 14:15:55;;;;;;;5.65;4.28;;;;;;;;;;5096227;28;20040;-82
2022/08/30 14:18:40;;;;;;;4.95;3.83;;;;;;;;;;5094510;28;20044;-80
2022/08/30 14:21:26;;;;;;;6.68;4.60;;;;;;;;;;5093978;28;20459;-79
2022/08/30 14:24:11;;;;;;;6.40;3.90;;;;;;;;;;5094021;28;20040;-83
2022/08/30 14:26:57;;;;;;;4.13;3.72;;;;;;;;;;5100589;28;20044;-81
2022/08/30 14:29:42;;;;;;;5.57;3.90;;;;;;;;;;5097125;28;20040;-81
2022/08/30 14:32:28;;;;;;;5.40;3.88;;;;;;;;;;5085274;28;20044;-83
2022/08/30 14:35:17;;;;;;;6.47;3.90;;;;;;;;;;5093775;28;20485;-81
2022/08/30 14:38:03;;;;;;;6.18;4.20;;;;;;;;;;5073656;28;20049;-82
2022/08/30 14:40:49;;;;;;;5.18;4.05;;;;;;;;;;5084053;28;20040;-81
2022/08/30 14:43:36;;;;;;;4.97;4.32;;;;;;;;;;5083907;28;20479;-81
2022/08/30 14:46:24;;;;;;;5.90;4.25;;;;;;;;;;5089301;28;20352;-82
2022/08/30 14:49:14;;;;;;;5.13;4.07;;;;;;;;;;5080477;28;20036;-83
2022/08/30 14:52:00;;;;;;;5.70;4.60;;;;;;;;;;5079449;28;20387;-81
2022/08/30 14:54:47;;;;;;;6.28;4.43;;;;;;;;;;5079569;28;20040;-82
2022/08/30 14:57:33;;;;;;;7.55;4.53;;;;;;;;;;5090935;28;20040;-81
2022/08/30 15:00:18;;;;;;;5.15;4.20;;;;;;;;;;5088022;28;20044;-82
2022/08/30 15:03:04;;;;;;;6.68;4.55;;;;;;;;;;5093085;28;20045;-84
2022/08/30 15:05:50;;;;;;;6.13;4.80;;;;;;;;;;5099331;28;20044;-80
2022/08/30 15:08:36;;;;;;;6.60;5.03;;;;;;;;;;5092200;28;20036;-82
2022/08/30 15:11:22;;;;;;;7.57;5.60;;;;;;;;;;5089250;28;20040;-82
2022/08/30 15:14:08;;;;;;;9.45;5.38;;;;;;;;;;5096914;28;20036;-85
2022/08/30 15:16:54;;;;;;;6.18;5.10;;;;;;;;;;5096907;28;20032;-82
2022/08/30 15:19:41;;;;;;;5.95;5.20;;;;;;;;;;5096737;28;20044;-81
2022/08/30 15:22:26;;;;;;;7.25;4.60;;;;;;;;;;5096824;28;20037;-81
2022/08/30 15:25:13;;;;;;;7.03;5.63;;;;;;;;;;5078716;28;20488;-81
2022/08/30 15:27:58;;;;;;;8.27;6.18;;;;;;;;;;5103695;28;20047;-82
2022/08/30 15:30:43;;;;;;;7.97;6.18;;;;;;;;;;5097670;28;20047;-78
2022/08/30 15:33:29;;;;;;;8.77;5.88;;;;;;;;;;5089829;28;20048;-81
2022/08/30 15:36:15;;;;;;;11.32;6.45;;;;;;;;;;5094454;28;20051;-82
2022/08/30 15:39:01;;;;;;;6.93;5.45;;;;;;;;;;5088476;28;20052;-80
2022/08/30 15:41:47;;;;;;;17.90;6.90;;;;;;;;;;5095308;28;20040;-83
2022/08/30 15:44:33;;;;;;;10.15;6.40;;;;;;;;;;5080371;28;20474;-80
2022/08/30 15:47:21;;;;;;;13.07;6.40;;;;;;;;;;5102469;28;20043;-82
2022/08/30 15:50:07;;;;;;;9.38;6.57;;;;;;;;;;5103611;28;20383;-82
2022/08/30 15:52:52;;;;;;;15.10;6.68;;;;;;;;;;5087019;28;20048;-80
2022/08/30 15:55:37;;;;;;;9.27;6.88;;;;;;;;;;5084707;28;20040;-82
2022/08/30 15:58:23;;;;;;;10.77;6.75;;;;;;;;;;5095993;28;20467;-82
2022/08/30 16:01:09;;;;;;;11.35;8.50;;;;;;;;;;5075507;28;20049;-81
2022/08/30 16:03:54;;;;;;;10.02;7.70;;;;;;;;;;5082831;28;20040;-82
2022/08/30 16:06:40;;;;;;;10.00;6.57;;;;;;;;;;5077125;28;20040;-80
2022/08/30 16:09:25;;;;;;;17.38;10.50;;;;;;;;;;5083183;28;20040;-82
2022/08/30 16:12:11;;;;;;;17.20;12.20;;;;;;;;;;5087464;28;20042;-82
2022/08/30 16:14:56;;;;;;;14.52;8.80;;;;;;;;;;5086746;28;20036;-83
2022/08/30 16:17:42;;;;;;;12.68;8.20;;;;;;;;;;5103643;28;20502;-83
2022/08/30 16:20:28;;;;;;;12.63;8.52;;;;;;;;;;5096245;28;20052;-81
2022/08/30 16:23:13;;;;;;;9.52;8.52;;;;;;;;;;5091000;28;20057;-83
2022/08/30 16:25:59;;;;;;;11.70;9.15;;;;;;;;;;5087363;28;20387;-83
2022/08/30 16:28:46;;;;;;;11.10;8.27;;;;;;;;;;5086648;28;20041;-82
2022/08/30 16:31:32;;;;;;;17.92;12.07;;;;;;;;;;5082426;28;20045;-81
2022/08/30 16:34:19;;;;;;;13.30;9.93;;;;;;;;;;5083022;28;20045;-81
2022/08/30 16:37:05;;;;;;;11.02;9.63;;;;;;;;;;5098670;28;20027;-81
2022/08/30 16:40:16;;;;;;;16.17;10.65;;;;;;;;;;5120323;28;20040;-79
2022/08/30 16:43:04;;;;;;;16.02;10.10;;;;;;;;;;5101122;28;20044;-78
2022/08/30 16:45:49;;;;;;;12.18;10.00;;;;;;;;;;5079204;28;20040;-80
2022/08/30 16:48:35;;;;;;;12.73;9.60;;;;;;;;;;5105362;28;20036;-81
2022/08/30 16:51:25;;;;;;;11.02;9.20;;;;;;;;;;5100145;28;20055;-78
2022/08/30 16:54:10;;;;;;;11.18;9.02;;;;;;;;;;5112369;28;20047;-78
2022/08/30 16:56:55;;;;;;;15.43;9.02;;;;;;;;;;5103624;28;20463;-78